createdAt,value
2022-07-29T00:01:19.185Z,71.44
2022-07-29T00:03:46.814Z,71.74
2022-07-29T00:06:13.850Z,71.80
2022-07-29T00:08:40.761Z,72.09
2022-07-29T00:11:07.640Z,72.04
2022-07-29T00:13:34.917Z,72.08
2022-07-29T00:16:04.540Z,72.06
2022-07-29T00:18:32.953Z,71.85
2022-07-29T00:21:00.336Z,71.56
2022-07-29T00:23:27.203Z,71.65
2022-07-29T00:25:54.075Z,71.82
2022-07-29T00:28:20.993Z,71.87
2022-07-29T00:30:47.906Z,71.76
2022-07-29T00:33:14.828Z,71.87
2022-07-29T00:35:44.938Z,71.58
2022-07-29T00:38:18.312Z,71.59
2022-07-29T00:40:45.810Z,71.23
2022-07-29T00:43:14.810Z,70.69
2022-07-29T00:45:43.031Z,70.92
2022-07-29T00:48:10.649Z,70.95
2022-07-29T00:50:38.338Z,71.10
2022-07-29T00:53:07.902Z,70.94
2022-07-29T00:55:35.557Z,71.17
2022-07-29T00:58:02.718Z,71.12
2022-07-29T01:00:30.541Z,70.63
2022-07-29T01:02:57.549Z,70.06
2022-07-29T01:05:50.788Z,69.46
2022-07-29T01:08:16.432Z,69.93
2022-07-29T01:10:45.622Z,69.33
2022-07-29T01:13:14.844Z,69.24
2022-07-29T01:15:48.833Z,69.72
2022-07-29T01:18:23.764Z,69.63
2022-07-29T01:21:14.306Z,69.51
2022-07-29T01:24:01.093Z,69.48
2022-07-29T01:26:30.733Z,68.78
2022-07-29T01:29:18.718Z,68.47
2022-07-29T01:31:59.116Z,67.89
2022-07-29T01:34:40.725Z,67.96
2022-07-29T01:37:19.748Z,67.90
2022-07-29T01:39:50.513Z,68.63
2022-07-29T01:42:36.737Z,67.94
2022-07-29T01:45:09.652Z,67.62
2022-07-29T01:47:44.574Z,67.21
2022-07-29T01:50:14.102Z,67.17
2022-07-29T01:52:47.787Z,66.79
2022-07-29T01:55:16.659Z,66.26
2022-07-29T01:57:45.791Z,65.85
2022-07-29T02:00:14.034Z,65.41
2022-07-29T02:02:45.374Z,65.06
2022-07-29T02:05:15.612Z,64.83
2022-07-29T02:07:44.434Z,64.81
2022-07-29T02:10:13.781Z,64.32
2022-07-29T02:12:43.607Z,64.17
2022-07-29T02:15:18.222Z,64.26
2022-07-29T02:17:51.172Z,64.16
2022-07-29T02:20:18.152Z,63.50
2022-07-29T02:22:47.660Z,63.87
2022-07-29T02:25:16.917Z,64.10
2022-07-29T02:27:45.567Z,64.01
2022-07-29T02:30:13.955Z,63.70
2022-07-29T02:32:43.342Z,63.57
2022-07-29T02:35:13.458Z,63.53
2022-07-29T02:37:41.191Z,63.31
2022-07-29T02:40:12.183Z,63.16
2022-07-29T02:42:42.293Z,63.11
2022-07-29T02:45:10.698Z,63.12
2022-07-29T02:47:44.859Z,63.04
2022-07-29T02:50:19.143Z,62.97
2022-07-29T02:52:53.610Z,63.04
2022-07-29T02:55:42.559Z,63.52
2022-07-29T02:58:14.660Z,63.68
2022-07-29T03:00:42.330Z,63.79
2022-07-29T03:03:14.251Z,63.42
2022-07-29T03:05:42.033Z,63.14
2022-07-29T03:08:12.354Z,62.73
2022-07-29T03:10:43.990Z,62.63
2022-07-29T03:13:11.639Z,62.17
2022-07-29T03:15:39.238Z,61.60
2022-07-29T03:18:07.758Z,61.75
2022-07-29T03:20:34.966Z,61.59
2022-07-29T03:23:01.842Z,61.60
2022-07-29T03:25:28.714Z,61.26
2022-07-29T03:27:55.595Z,61.44
2022-07-29T03:30:22.601Z,61.53
2022-07-29T03:32:52.264Z,61.55
2022-07-29T03:35:35.333Z,61.50
2022-07-29T03:38:02.396Z,61.46
2022-07-29T03:40:39.354Z,61.27
2022-07-29T03:43:09.693Z,61.29
2022-07-29T03:45:37.435Z,61.04
2022-07-29T03:48:09.653Z,60.89
2022-07-29T03:50:37.723Z,60.55
2022-07-29T03:53:05.134Z,60.37
2022-07-29T03:55:38.754Z,60.20
2022-07-29T03:58:07.748Z,60.13
2022-07-29T04:00:36.100Z,59.90
2022-07-29T04:03:05.173Z,59.65
2022-07-29T04:05:37.946Z,59.98
2022-07-29T04:08:05.049Z,59.68
2022-07-29T04:10:34.192Z,59.63
2022-07-29T04:13:02.773Z,59.03
2022-07-29T04:15:31.643Z,58.92
2022-07-29T04:17:59.930Z,58.86
2022-07-29T04:20:26.922Z,58.92
2022-07-29T04:22:53.851Z,58.76
2022-07-29T04:25:21.041Z,58.79
2022-07-29T04:28:04.268Z,58.70
2022-07-29T04:30:32.546Z,58.38
2022-07-29T04:33:01.907Z,58.51
2022-07-29T04:35:30.493Z,58.44
2022-07-29T04:38:06.857Z,58.22
2022-07-29T04:40:34.885Z,57.50
2022-07-29T04:43:05.728Z,57.10
2022-07-29T04:45:33.011Z,56.92
2022-07-29T04:47:59.866Z,56.29
2022-07-29T04:50:26.671Z,55.75
2022-07-29T04:52:54.285Z,55.60
2022-07-29T04:55:21.164Z,54.20
2022-07-29T04:57:47.936Z,53.50
2022-07-29T05:00:16.010Z,53.50
2022-07-29T05:02:42.882Z,52.69
2022-07-29T05:05:10.010Z,52.52
2022-07-29T05:07:36.922Z,51.20
2022-07-29T05:10:04.737Z,50.87
2022-07-29T05:12:31.546Z,49.63
2022-07-29T05:14:58.386Z,49.79
2022-07-29T05:17:25.183Z,49.53
2022-07-29T05:19:52.497Z,49.15
2022-07-29T05:22:20.403Z,48.80
2022-07-29T05:24:47.750Z,48.85
2022-07-29T05:27:14.847Z,48.88
2022-07-29T05:29:43.737Z,49.07
2022-07-29T05:32:12.954Z,48.90
2022-07-29T05:34:50.153Z,48.96
2022-07-29T05:37:20.221Z,49.49
2022-07-29T05:39:50.563Z,49.53
2022-07-29T05:42:24.525Z,49.77
2022-07-29T05:44:51.869Z,49.65
2022-07-29T05:47:18.808Z,49.11
2022-07-29T05:49:46.374Z,49.16
2022-07-29T05:52:14.371Z,48.83
2022-07-29T05:54:41.739Z,48.31
2022-07-29T05:57:09.103Z,47.76
2022-07-29T05:59:38.158Z,48.58
2022-07-29T06:02:07.131Z,46.66
2022-07-29T06:04:34.774Z,47.05
2022-07-29T06:07:02.907Z,47.21
2022-07-29T06:09:29.980Z,46.35
2022-07-29T06:11:57.260Z,45.40
2022-07-29T06:14:24.053Z,45.39
2022-07-29T06:16:51.003Z,44.74
2022-07-29T06:19:17.916Z,45.13
2022-07-29T06:21:45.454Z,44.44
2022-07-29T06:24:13.997Z,44.30
2022-07-29T06:26:42.046Z,44.01
2022-07-29T06:29:11.694Z,43.27
2022-07-29T06:31:39.211Z,42.95
2022-07-29T06:34:06.147Z,43.67
2022-07-29T06:36:36.749Z,42.85
2022-07-29T06:39:07.329Z,42.27
2022-07-29T06:41:35.473Z,41.40
2022-07-29T06:44:07.256Z,40.90
2022-07-29T06:46:34.102Z,40.79
2022-07-29T06:49:02.788Z,40.62
2022-07-29T06:51:30.039Z,39.52
2022-07-29T06:54:02.161Z,39.25
2022-07-29T06:56:31.189Z,40.25
2022-07-29T06:58:58.397Z,39.85
2022-07-29T07:01:26.346Z,39.40
2022-07-29T07:03:53.246Z,39.07
2022-07-29T07:06:20.048Z,38.91
2022-07-29T07:08:46.935Z,38.94
2022-07-29T07:11:13.764Z,38.52
2022-07-29T07:13:40.608Z,38.37
2022-07-29T07:16:07.390Z,38.76
2022-07-29T07:18:34.246Z,38.78
2022-07-29T07:21:01.233Z,38.49
2022-07-29T07:23:28.110Z,38.29
2022-07-29T07:25:54.979Z,38.53
2022-07-29T07:28:24.475Z,38.59
2022-07-29T07:30:53.052Z,38.43
2022-07-29T07:33:20.648Z,37.93
2022-07-29T07:35:47.994Z,37.56
2022-07-29T07:38:15.011Z,37.70
2022-07-29T07:40:42.531Z,36.78
2022-07-29T07:43:09.445Z,36.93
2022-07-29T07:45:38.568Z,37.41
2022-07-29T07:48:06.087Z,37.47
2022-07-29T07:50:33.001Z,38.39
2022-07-29T07:53:00.661Z,38.92
2022-07-29T07:55:27.737Z,38.60
2022-07-29T07:57:55.772Z,38.27
2022-07-29T08:00:23.800Z,38.26
2022-07-29T08:02:51.828Z,38.03
2022-07-29T08:05:19.400Z,37.70
2022-07-29T08:07:47.619Z,37.14
2022-07-29T08:10:36.628Z,36.98
2022-07-29T08:13:06.260Z,36.17
2022-07-29T08:15:34.040Z,35.08
2022-07-29T08:18:05.230Z,34.29
2022-07-29T08:20:36.864Z,33.43
2022-07-29T08:23:05.751Z,32.68
2022-07-29T08:25:34.704Z,32.77
2022-07-29T08:28:05.985Z,31.59
2022-07-29T08:30:33.522Z,31.65
2022-07-29T08:33:00.770Z,31.20
2022-07-29T08:35:31.018Z,30.69
2022-07-29T08:38:00.244Z,30.97
2022-07-29T08:40:32.443Z,31.89
2022-07-29T08:43:06.457Z,30.61
2022-07-29T08:45:48.165Z,30.20
2022-07-29T08:48:19.998Z,29.80
2022-07-29T08:50:49.159Z,28.76
2022-07-29T08:53:17.654Z,28.41
2022-07-29T08:55:46.781Z,27.88
2022-07-29T08:58:15.703Z,28.52
2022-07-29T09:00:46.069Z,27.67
2022-07-29T09:03:16.990Z,27.83
2022-07-29T09:05:48.081Z,27.78
2022-07-29T09:08:16.877Z,27.13
2022-07-29T09:10:44.876Z,26.40
2022-07-29T09:13:11.753Z,26.62
2022-07-29T09:15:38.575Z,25.83
2022-07-29T09:18:05.398Z,26.25
2022-07-29T09:20:48.044Z,26.66
2022-07-29T09:23:24.135Z,26.61
2022-07-29T09:25:51.737Z,26.19
2022-07-29T09:28:19.067Z,26.59
2022-07-29T09:30:54.830Z,26.89
2022-07-29T09:33:23.422Z,26.80
2022-07-29T09:36:07.126Z,26.21
2022-07-29T09:38:36.266Z,26.73
2022-07-29T09:41:06.919Z,27.39
2022-07-29T09:43:35.079Z,25.96
2022-07-29T09:46:17.734Z,27.10
2022-07-29T09:48:45.301Z,26.79
2022-07-29T09:51:24.141Z,26.33
2022-07-29T09:53:55.484Z,26.34
2022-07-29T09:56:40.610Z,26.81
2022-07-29T09:59:09.187Z,26.57
2022-07-29T10:01:37.051Z,27.38
2022-07-29T10:04:04.155Z,27.42
2022-07-29T10:06:30.988Z,28.00
2022-07-29T10:09:13.313Z,27.86
2022-07-29T10:11:49.642Z,28.40
2022-07-29T10:14:17.322Z,28.45
2022-07-29T10:16:44.464Z,28.13
2022-07-29T10:19:11.770Z,28.98
2022-07-29T10:21:40.845Z,28.89
2022-07-29T10:24:15.050Z,28.92
2022-07-29T10:26:43.259Z,28.41
2022-07-29T10:29:10.615Z,29.03
2022-07-29T10:31:56.352Z,29.26
2022-07-29T10:34:46.314Z,28.82
2022-07-29T10:37:20.653Z,29.31
2022-07-29T10:39:58.864Z,29.57
2022-07-29T10:42:34.359Z,29.81
2022-07-29T10:45:04.622Z,29.69
2022-07-29T10:47:31.912Z,29.99
2022-07-29T10:50:01.865Z,30.39
2022-07-29T10:52:55.822Z,29.98
2022-07-29T10:55:43.869Z,30.64
2022-07-29T10:58:13.624Z,30.07
2022-07-29T11:00:40.577Z,30.21
2022-07-29T11:03:10.511Z,29.14
2022-07-29T11:05:55.738Z,29.77
2022-07-29T11:08:26.377Z,30.30
2022-07-29T11:11:22.443Z,30.77
2022-07-29T11:13:57.167Z,31.59
2022-07-29T11:16:25.302Z,32.20
2022-07-29T11:19:16.440Z,32.22
2022-07-29T11:21:55.310Z,32.16
2022-07-29T11:24:32.122Z,32.27
2022-07-29T11:27:18.249Z,32.38
2022-07-29T11:30:03.193Z,31.68
2022-07-29T11:32:40.158Z,31.05
2022-07-29T11:35:38.432Z,30.60
2022-07-29T11:38:23.452Z,30.42
2022-07-29T11:41:23.673Z,29.85
2022-07-29T11:43:53.485Z,29.87
2022-07-29T11:46:53.886Z,29.58
2022-07-29T11:49:32.312Z,30.18
2022-07-29T11:52:03.257Z,30.39
2022-07-29T11:54:38.878Z,30.96
2022-07-29T12:00:12.637Z,28.98
2022-07-29T12:02:48.677Z,28.48
2022-07-29T12:05:22.282Z,27.49
2022-07-29T12:08:08.227Z,28.33
2022-07-29T12:10:42.212Z,28.44
2022-07-29T12:13:10.245Z,28.38
2022-07-29T12:15:47.015Z,28.13
2022-07-29T12:18:16.141Z,27.68
2022-07-29T12:20:46.043Z,25.84
2022-07-29T12:23:13.549Z,25.44
2022-07-29T12:25:49.628Z,24.76
2022-07-29T12:28:26.628Z,24.47
2022-07-29T12:30:54.031Z,24.60
2022-07-29T12:33:23.713Z,24.75
2022-07-29T12:36:17.609Z,24.27
2022-07-29T12:38:45.771Z,24.43
2022-07-29T12:41:13.817Z,24.53
2022-07-29T12:43:53.844Z,24.05
2022-07-29T12:46:21.151Z,23.59
2022-07-29T12:48:56.318Z,23.33
2022-07-29T12:51:40.081Z,23.51
2022-07-29T12:54:12.510Z,23.99
2022-07-29T12:56:44.321Z,24.23
2022-07-29T12:59:14.116Z,24.19
2022-07-29T13:01:40.988Z,24.23
2022-07-29T13:04:08.076Z,24.57
2022-07-29T13:06:36.622Z,24.60
2022-07-29T13:09:05.644Z,25.02
2022-07-29T13:11:36.595Z,25.57
2022-07-29T13:14:06.808Z,27.07
2022-07-29T13:16:34.296Z,26.76
2022-07-29T13:19:11.740Z,26.56
2022-07-29T13:21:40.237Z,26.34
2022-07-29T13:24:08.587Z,27.10
2022-07-29T13:26:35.716Z,27.52
2022-07-29T13:29:02.525Z,27.19
2022-07-29T13:31:29.436Z,27.30
2022-07-29T13:33:57.405Z,26.43
2022-07-29T13:36:24.440Z,25.89
2022-07-29T13:38:51.325Z,26.67
2022-07-29T13:41:18.180Z,26.06
2022-07-29T13:43:44.997Z,25.79
2022-07-29T13:46:11.818Z,25.33
2022-07-29T13:48:38.706Z,24.73
2022-07-29T13:51:05.582Z,24.26
2022-07-29T13:53:32.473Z,23.88
2022-07-29T13:55:59.552Z,24.14
2022-07-29T13:58:26.604Z,23.01
2022-07-29T14:00:53.512Z,23.23
2022-07-29T14:03:23.641Z,24.27
2022-07-29T14:05:50.523Z,24.07
2022-07-29T14:08:17.333Z,24.99
2022-07-29T14:10:44.251Z,24.51
2022-07-29T14:13:25.148Z,24.72
2022-07-29T14:15:54.032Z,24.67
2022-07-29T14:18:20.908Z,25.43
2022-07-29T14:20:47.827Z,25.82
2022-07-29T14:23:16.267Z,25.71
2022-07-29T14:25:44.564Z,26.27
2022-07-29T14:28:12.811Z,27.05
2022-07-29T14:30:41.682Z,27.57
2022-07-29T14:33:09.174Z,28.40
2022-07-29T14:35:35.964Z,28.88
2022-07-29T14:38:02.750Z,29.15
2022-07-29T14:40:29.584Z,29.33
2022-07-29T14:42:56.599Z,30.01
2022-07-29T14:45:24.051Z,30.79
2022-07-29T14:47:53.417Z,31.25
2022-07-29T14:50:31.626Z,31.27
2022-07-29T14:53:00.218Z,31.90
2022-07-29T14:55:27.704Z,32.43
2022-07-29T14:58:00.722Z,32.64
2022-07-29T15:00:34.666Z,32.62
2022-07-29T15:03:02.878Z,33.06
2022-07-29T15:05:31.476Z,32.97
2022-07-29T15:07:59.922Z,33.09
2022-07-29T15:10:42.346Z,33.36
2022-07-29T15:13:09.650Z,33.71
2022-07-29T15:15:36.606Z,33.92
2022-07-29T15:18:03.983Z,33.65
2022-07-29T15:20:30.964Z,33.61
2022-07-29T15:22:57.799Z,33.52
2022-07-29T15:25:25.673Z,33.22
2022-07-29T15:27:59.189Z,33.91
2022-07-29T15:30:33.371Z,34.16
2022-07-29T15:33:02.682Z,34.85
2022-07-29T15:35:29.741Z,35.01
2022-07-29T15:37:56.554Z,35.00
2022-07-29T15:40:23.406Z,35.32
2022-07-29T15:42:50.606Z,36.08
2022-07-29T15:45:17.425Z,36.27
2022-07-29T15:47:44.662Z,36.23
2022-07-29T15:50:15.960Z,36.49
2022-07-29T15:52:43.766Z,37.19
2022-07-29T15:55:10.787Z,37.42
2022-07-29T15:57:41.020Z,37.19
2022-07-29T16:00:08.747Z,37.76
2022-07-29T16:02:35.920Z,37.97
2022-07-29T16:05:02.708Z,38.00
2022-07-29T16:07:31.381Z,38.22
2022-07-29T16:09:59.434Z,38.33
2022-07-29T16:12:26.466Z,38.63
2022-07-29T16:14:53.380Z,38.74
2022-07-29T16:17:20.354Z,39.18
2022-07-29T16:19:47.472Z,39.37
2022-07-29T16:22:14.609Z,39.46
2022-07-29T16:24:41.806Z,39.30
2022-07-29T16:27:09.320Z,39.92
2022-07-29T16:29:37.426Z,39.88
2022-07-29T16:32:06.332Z,40.45
2022-07-29T16:34:33.726Z,40.56
2022-07-29T16:37:00.942Z,41.65
2022-07-29T16:39:27.979Z,44.01
2022-07-29T16:41:58.312Z,45.50
2022-07-29T16:44:27.513Z,46.06
2022-07-29T16:46:56.081Z,46.91
2022-07-29T16:49:25.962Z,47.69
2022-07-29T16:51:53.931Z,48.22
2022-07-29T16:54:21.356Z,48.99
2022-07-29T16:56:48.191Z,49.79
2022-07-29T16:59:15.034Z,50.72
2022-07-29T17:01:41.934Z,51.63
2022-07-29T17:04:09.351Z,52.72
2022-07-29T17:06:39.074Z,54.14
2022-07-29T17:09:07.739Z,55.65
2022-07-29T17:11:53.593Z,56.61
2022-07-29T17:14:25.625Z,57.06
2022-07-29T17:17:00.574Z,56.90
2022-07-29T17:19:31.918Z,57.24
2022-07-29T17:22:08.958Z,57.07
2022-07-29T17:24:38.923Z,57.27
2022-07-29T17:27:07.146Z,57.57
2022-07-29T17:29:35.419Z,57.42
2022-07-29T17:32:02.304Z,57.50
2022-07-29T17:34:29.197Z,57.32
2022-07-29T17:36:56.724Z,57.65
2022-07-29T17:39:24.284Z,57.90
2022-07-29T17:41:51.106Z,57.96
2022-07-29T17:44:18.459Z,57.70
2022-07-29T17:46:45.419Z,57.97
2022-07-29T17:49:12.415Z,57.77
2022-07-29T17:51:39.328Z,58.49
2022-07-29T17:54:06.174Z,58.56
2022-07-29T17:56:33.122Z,58.67
2022-07-29T17:59:01.632Z,58.47
2022-07-29T18:01:28.898Z,58.64
2022-07-29T18:03:59.787Z,58.55
2022-07-29T18:06:27.159Z,58.71
2022-07-29T18:08:55.348Z,59.37
2022-07-29T18:11:23.009Z,59.45
2022-07-29T18:13:49.814Z,59.13
2022-07-29T18:16:16.722Z,59.04
2022-07-29T18:18:45.056Z,59.43
2022-07-29T18:21:12.459Z,60.29
2022-07-29T18:23:39.368Z,60.90
2022-07-29T18:26:06.215Z,61.02
2022-07-29T18:28:33.308Z,61.12
2022-07-29T18:31:01.440Z,61.45
2022-07-29T18:33:28.436Z,62.11
2022-07-29T18:36:10.480Z,62.60
2022-07-29T18:38:39.009Z,63.73
2022-07-29T18:41:05.797Z,64.00
2022-07-29T18:43:32.659Z,64.82
2022-07-29T18:45:59.486Z,65.08
2022-07-29T18:48:26.307Z,65.87
2022-07-29T18:50:53.390Z,66.90
2022-07-29T18:53:20.217Z,67.38
2022-07-29T18:55:47.050Z,67.22
2022-07-29T18:58:13.925Z,68.22
2022-07-29T19:00:41.057Z,69.30
2022-07-29T19:03:08.988Z,69.22
2022-07-29T19:05:35.913Z,69.45
2022-07-29T19:08:02.911Z,69.83
2022-07-29T19:10:30.573Z,70.35
2022-07-29T19:12:58.009Z,70.23
2022-07-29T19:15:25.257Z,70.48
2022-07-29T19:17:52.111Z,70.99
2022-07-29T19:20:18.967Z,70.85
2022-07-29T19:22:46.194Z,70.72
2022-07-29T19:25:13.530Z,70.94
2022-07-29T19:27:42.057Z,71.34
2022-07-29T19:30:09.875Z,71.60
2022-07-29T19:32:37.419Z,71.74
2022-07-29T19:35:21.721Z,71.74
2022-07-29T19:37:48.421Z,72.11
2022-07-29T19:40:16.365Z,72.31
2022-07-29T19:42:44.306Z,72.36
2022-07-29T19:45:11.853Z,72.20
2022-07-29T19:47:38.774Z,72.07
2022-07-29T19:50:06.916Z,71.73
2022-07-29T19:52:33.779Z,71.71
2022-07-29T19:55:06.815Z,71.76
2022-07-29T19:57:40.859Z,72.03
2022-07-29T20:00:11.474Z,72.19
2022-07-29T20:02:40.397Z,72.76
2022-07-29T20:05:08.781Z,72.83
2022-07-29T20:07:36.726Z,72.87
2022-07-29T20:10:05.349Z,72.88
2022-07-29T20:12:32.647Z,73.04
2022-07-29T20:14:59.858Z,73.06
2022-07-29T20:17:27.262Z,73.05
2022-07-29T20:19:54.297Z,73.05
2022-07-29T20:22:22.789Z,72.65
2022-07-29T20:24:49.607Z,72.23
2022-07-29T20:27:16.477Z,72.12
2022-07-29T20:29:43.353Z,72.34
2022-07-29T20:32:12.032Z,72.47
2022-07-29T20:34:41.304Z,72.45
2022-07-29T20:37:13.463Z,72.45
2022-07-29T20:39:42.973Z,72.50
2022-07-29T20:42:09.882Z,72.65
2022-07-29T20:44:36.959Z,72.75
2022-07-29T20:47:03.944Z,73.44
2022-07-29T20:49:31.013Z,74.07
2022-07-29T20:51:58.098Z,74.39
2022-07-29T20:54:24.975Z,74.25
2022-07-29T20:56:51.833Z,74.62
2022-07-29T20:59:18.917Z,74.95
2022-07-29T21:01:46.323Z,75.08
2022-07-29T21:04:13.274Z,75.26
2022-07-29T21:06:40.059Z,75.43
2022-07-29T21:09:06.928Z,75.58
2022-07-29T21:11:44.023Z,75.50
2022-07-29T21:14:28.696Z,75.20
2022-07-29T21:16:55.863Z,75.03
2022-07-29T21:19:22.625Z,74.77
2022-07-29T21:21:49.963Z,74.63
2022-07-29T21:24:16.795Z,74.85
2022-07-29T21:26:47.463Z,74.87
2022-07-29T21:29:18.586Z,74.65
2022-07-29T21:31:45.406Z,74.34
2022-07-29T21:34:12.248Z,73.92
2022-07-29T21:36:54.224Z,73.15
2022-07-29T21:39:21.059Z,72.81
2022-07-29T21:41:48.105Z,72.77
2022-07-29T21:44:14.907Z,72.91
2022-07-29T21:46:41.757Z,72.61
2022-07-29T21:49:08.670Z,72.50
2022-07-29T21:51:35.507Z,72.39
2022-07-29T21:54:03.802Z,72.45
2022-07-29T21:56:31.425Z,72.45
2022-07-29T21:58:58.483Z,72.22
2022-07-29T22:01:25.466Z,72.26
2022-07-29T22:03:52.543Z,72.32
2022-07-29T22:06:19.786Z,72.27
2022-07-29T22:08:48.066Z,71.94
2022-07-29T22:11:15.005Z,71.69
2022-07-29T22:13:42.027Z,71.47
2022-07-29T22:16:10.359Z,71.30
2022-07-29T22:18:37.185Z,71.26
2022-07-29T22:21:04.589Z,71.17
2022-07-29T22:23:31.553Z,71.05
2022-07-29T22:25:58.422Z,70.63
2022-07-29T22:28:25.251Z,70.45
2022-07-29T22:30:52.135Z,70.40
2022-07-29T22:33:18.950Z,70.20
2022-07-29T22:35:48.486Z,70.30
2022-07-29T22:38:17.540Z,70.15
2022-07-29T22:40:44.361Z,70.14
2022-07-29T22:43:11.192Z,70.21
2022-07-29T22:45:38.331Z,70.33
2022-07-29T22:48:06.092Z,70.12
2022-07-29T22:50:33.093Z,69.97
2022-07-29T22:52:59.929Z,69.98
2022-07-29T22:55:26.723Z,70.01
2022-07-29T22:57:53.512Z,69.85
2022-07-29T23:00:20.358Z,70.04
2022-07-29T23:02:47.697Z,69.75
2022-07-29T23:05:15.932Z,69.35
2022-07-29T23:07:43.168Z,69.36
2022-07-29T23:10:10.520Z,69.31
2022-07-29T23:12:37.511Z,69.41
2022-07-29T23:15:06.361Z,69.23
2022-07-29T23:17:36.178Z,68.99
2022-07-29T23:20:07.724Z,69.26
2022-07-29T23:22:36.031Z,68.96
2022-07-29T23:25:05.074Z,68.88
2022-07-29T23:27:32.333Z,68.46
2022-07-29T23:29:59.202Z,68.48
2022-07-29T23:32:25.966Z,68.26
2022-07-29T23:34:52.771Z,68.31
2022-07-29T23:37:19.635Z,68.33
2022-07-29T23:39:46.457Z,68.32
2022-07-29T23:42:13.296Z,68.42
2022-07-29T23:44:40.114Z,68.52
2022-07-29T23:47:06.987Z,68.66
2022-07-29T23:49:33.868Z,68.78
2022-07-29T23:52:00.678Z,69.19
2022-07-29T23:54:27.937Z,69.46
2022-07-29T23:56:56.866Z,69.85
2022-07-29T23:59:24.622Z,70.09
